createdAt,value
2018-06-18T00:00:26.129Z,68.79
2018-06-18T00:01:06.492Z,68.7
2018-06-18T00:01:46.920Z,68.31
2018-06-18T00:02:27.353Z,68.6
2018-06-18T00:03:07.720Z,68.31
2018-06-18T00:03:48.113Z,68.41
2018-06-18T00:04:28.508Z,68.89
2018-06-18T00:05:08.908Z,69.27
2018-06-18T00:05:49.298Z,68.98
2018-06-18T00:06:29.673Z,69.08
2018-06-18T00:07:10.125Z,68.98
2018-06-18T00:07:50.586Z,68.89
2018-06-18T00:08:30.959Z,68.98
2018-06-18T00:09:11.367Z,68.98
2018-06-18T00:09:51.749Z,69.56
2018-06-18T00:10:32.126Z,69.75
2018-06-18T00:11:12.584Z,69.46
2018-06-18T00:11:52.963Z,69.95
2018-06-18T00:12:33.370Z,70.01
2018-06-18T00:13:13.763Z,70.2
2018-06-18T00:13:54.252Z,70.39
2018-06-18T00:14:34.557Z,70.2
2018-06-18T00:15:14.980Z,70.2
2018-06-18T00:15:55.431Z,70.87
2018-06-18T00:16:35.782Z,70.87
2018-06-18T00:17:16.180Z,70.58
2018-06-18T00:17:56.626Z,70.29
2018-06-18T00:18:37.020Z,70.87
2018-06-18T00:19:17.453Z,70.58
2018-06-18T00:19:57.851Z,71.06
2018-06-18T00:20:38.229Z,70.97
2018-06-18T00:21:18.653Z,71.06
2018-06-18T00:21:59.055Z,71.35
2018-06-18T00:22:39.465Z,71.55
2018-06-18T00:23:19.830Z,71.7
2018-06-18T00:24:00.214Z,71.83
2018-06-18T00:24:40.676Z,72.31
2018-06-18T00:25:21.077Z,71.98
2018-06-18T00:26:01.468Z,71.98
2018-06-18T00:26:41.869Z,72.56
2018-06-18T00:27:22.268Z,72.66
2018-06-18T00:28:02.699Z,72.66
2018-06-18T00:28:43.060Z,72.56
2018-06-18T00:29:23.503Z,73.04
2018-06-18T00:30:03.952Z,73.04
2018-06-18T00:30:44.309Z,73.33
2018-06-18T00:31:24.728Z,73.52
2018-06-18T00:32:05.121Z,73.24
2018-06-18T00:32:45.560Z,73.81
2018-06-18T00:33:26.014Z,73.52
2018-06-18T00:34:06.332Z,73.62
2018-06-18T00:34:46.776Z,73.58
2018-06-18T00:35:27.188Z,73.68
2018-06-18T00:36:07.566Z,73.77
2018-06-18T00:36:47.999Z,73.97
2018-06-18T00:37:28.345Z,73.49
2018-06-18T00:38:08.770Z,73.97
2018-06-18T00:38:49.164Z,74.06
2018-06-18T00:39:29.598Z,74.06
2018-06-18T00:40:09.964Z,74.26
2018-06-18T00:40:50.382Z,75.02
2018-06-18T00:41:30.784Z,74.73
2018-06-18T00:42:11.187Z,74.73
2018-06-18T00:42:51.605Z,74.73
2018-06-18T00:43:32.019Z,74.83
2018-06-18T00:44:12.391Z,75.02
2018-06-18T00:44:52.805Z,75.02
2018-06-18T00:45:33.218Z,75.5
2018-06-18T00:46:13.574Z,75.5
2018-06-18T00:46:54.061Z,75.6
2018-06-18T00:47:34.429Z,75.79
2018-06-18T00:48:14.832Z,75.89
2018-06-18T00:48:55.252Z,76.84
2018-06-18T00:49:35.654Z,76.46
2018-06-18T00:50:16.087Z,76.65
2018-06-18T00:50:56.509Z,76.56
2018-06-18T00:51:36.867Z,76.84
2018-06-18T00:52:17.277Z,77.13
2018-06-18T00:52:57.701Z,77.33
2018-06-18T00:53:38.051Z,77.13
2018-06-18T01:19:59.879Z,79.93
2018-06-18T01:20:40.303Z,80.41
2018-06-18T01:21:20.650Z,80.03
2018-06-18T01:22:01.129Z,80.32
2018-06-18T01:22:41.501Z,80.03
2018-06-18T01:23:21.877Z,80.12
2018-06-18T01:24:02.294Z,80.32
2018-06-18T01:24:42.705Z,80.89
2018-06-18T01:25:23.129Z,80.7
2018-06-18T01:26:03.489Z,80.41
2018-06-18T01:26:43.867Z,80.22
2018-06-18T01:27:24.276Z,80.22
2018-06-18T01:28:04.693Z,79.93
2018-06-18T01:28:45.001Z,80.12
2018-06-18T01:29:25.424Z,80.12
2018-06-18T01:30:05.806Z,80.03
2018-06-18T01:30:46.193Z,79.83
2018-06-18T01:31:26.579Z,80.41
2018-06-18T01:32:07.007Z,80.79
2018-06-18T01:32:47.431Z,80.7
2018-06-18T01:33:27.801Z,80.26
2018-06-18T01:34:08.247Z,80.7
2018-06-18T01:34:48.631Z,80.45
2018-06-18T01:35:29.057Z,80.74
2018-06-18T01:36:09.472Z,80.51
2018-06-18T01:36:49.869Z,80.93
2018-06-18T01:37:30.268Z,81.02
2018-06-18T01:38:10.712Z,80.55
2018-06-18T01:38:51.095Z,80.55
2018-06-18T01:39:31.474Z,80.64
2018-06-18T01:40:11.875Z,80.64
2018-06-18T01:40:52.229Z,80.26
2018-06-18T01:41:32.680Z,80.26
2018-06-18T01:42:13.085Z,79.97
2018-06-18T01:42:53.484Z,80.35
2018-06-18T01:43:33.906Z,80.26
2018-06-18T01:44:14.282Z,79.97
2018-06-18T01:44:54.698Z,80.07
2018-06-18T01:45:35.078Z,80.35
2018-06-18T01:46:15.534Z,80.26
2018-06-18T01:46:55.947Z,80.07
2018-06-18T01:47:36.278Z,80.07
2018-06-18T01:48:16.634Z,79.78
2018-06-18T01:48:57.061Z,79.78
2018-06-18T01:49:37.464Z,80.26
2018-06-18T01:50:17.891Z,80.26
2018-06-18T01:50:58.287Z,79.88
2018-06-18T01:51:38.648Z,80.12
2018-06-18T01:52:19.124Z,80.26
2018-06-18T01:52:59.485Z,80.45
2018-06-18T01:53:39.888Z,80.74
2018-06-18T01:54:20.310Z,79.97
2018-06-18T01:55:00.745Z,80.16
2018-06-18T01:55:41.161Z,80.64
2018-06-18T01:56:21.549Z,80.93
2018-06-18T01:57:01.945Z,81.22
2018-06-18T01:57:42.334Z,80.83
2018-06-18T01:58:22.764Z,80.64
2018-06-18T01:59:03.169Z,80.55
2018-06-18T01:59:43.531Z,80.55
2018-06-18T02:00:23.954Z,80.83
2018-06-18T02:01:04.367Z,80.45
2018-06-18T02:01:44.807Z,80.64
2018-06-18T02:02:25.189Z,80.55
2018-06-18T02:03:05.566Z,80.93
2018-06-18T02:03:45.976Z,80.74
2018-06-18T02:04:26.355Z,80.7
2018-06-18T02:48:01.592Z,83.67
2018-06-18T02:48:41.969Z,83.44
2018-06-18T02:49:22.393Z,83.67
2018-06-18T02:50:02.791Z,83.29
2018-06-18T02:50:43.155Z,83.67
2018-06-18T02:51:23.579Z,84.15
2018-06-18T02:52:03.947Z,84.15
2018-06-18T02:52:44.387Z,84.05
2018-06-18T02:53:24.818Z,83.82
2018-06-18T02:54:05.235Z,83.72
2018-06-18T03:28:31.585Z,84.49
2018-06-18T03:29:12.003Z,84.58
2018-06-18T03:29:52.407Z,84.49
2018-06-18T03:44:26.734Z,84.44
2018-06-18T03:45:07.053Z,84.39
2018-06-18T03:45:47.390Z,84.72
2018-06-18T03:46:27.814Z,84.72
2018-06-18T03:47:08.215Z,85.35
2018-06-18T03:47:48.641Z,84.58
2018-06-18T03:48:29.014Z,85.39
2018-06-18T03:49:09.498Z,85.49
2018-06-18T03:49:49.911Z,84.53
2018-06-18T03:50:30.304Z,84.53
2018-06-18T03:51:10.744Z,84.63
2018-06-18T03:51:51.172Z,84.44
2018-06-18T04:43:20.907Z,84.28
2018-06-18T04:44:01.233Z,83.42
2018-06-18T04:44:41.676Z,83.42
2018-06-18T04:45:22.080Z,84
2018-06-18T04:46:02.493Z,84.19
2018-06-18T04:46:42.889Z,84.28
2018-06-18T04:47:23.282Z,84.09
2018-06-18T04:48:03.713Z,83.42
2018-06-18T04:48:44.115Z,83.71
2018-06-18T04:49:24.481Z,83.71
2018-06-18T04:50:04.869Z,82.85
2018-06-18T04:50:45.322Z,82.56
2018-06-18T04:51:25.754Z,82.37
2018-06-18T04:52:06.045Z,82.37
2018-06-18T04:52:46.477Z,82.37
2018-06-18T04:53:26.872Z,82.18
2018-06-18T04:54:07.252Z,82.08
2018-06-18T04:54:47.678Z,81.64
2018-06-18T04:55:28.071Z,81.64
2018-06-18T04:56:08.439Z,81.26
2018-06-18T04:56:48.877Z,81.16
2018-06-18T04:57:29.269Z,80.97
2018-06-18T04:58:09.642Z,80.97
2018-06-18T04:58:50.054Z,80.87
2018-06-18T04:59:30.506Z,80.58
2018-06-18T05:00:10.877Z,80.4
2018-06-18T05:00:51.373Z,79.53
2018-06-18T05:01:31.756Z,80.11
2018-06-18T05:02:12.232Z,80.11
2018-06-18T05:02:52.561Z,79.63
2018-06-18T05:03:32.959Z,78.99
2018-06-18T05:04:13.348Z,78.61
2018-06-18T05:04:53.788Z,78.42
2018-06-18T05:05:34.244Z,78.23
2018-06-18T05:06:14.626Z,78.61
2018-06-18T05:06:55.006Z,77.94
2018-06-18T05:07:35.425Z,77.65
2018-06-18T05:08:15.816Z,77.46
2018-06-18T05:08:56.191Z,77.46
2018-06-18T05:09:36.563Z,77.75
2018-06-18T05:10:16.986Z,77.17
2018-06-18T05:10:57.355Z,76.4
2018-06-18T05:11:37.801Z,76.79
2018-06-18T05:12:18.190Z,76.4
2018-06-18T05:12:58.728Z,76.54
2018-06-18T05:13:39.205Z,76.12
2018-06-18T05:14:19.528Z,76.73
2018-06-18T05:14:59.872Z,77.01
2018-06-18T05:15:40.323Z,75.77
2018-06-18T05:16:20.731Z,75.57
2018-06-18T05:17:01.097Z,75.15
2018-06-18T05:17:41.496Z,75.45
2018-06-18T05:18:21.938Z,75.77
2018-06-18T05:19:02.398Z,75.87
2018-06-18T05:19:42.725Z,76.06
2018-06-18T05:20:23.227Z,75.77
2018-06-18T05:21:03.606Z,75.67
2018-06-18T05:21:44.020Z,75.57
2018-06-18T05:22:24.404Z,75.38
2018-06-18T05:23:04.791Z,75.77
2018-06-18T05:23:45.248Z,75
2018-06-18T05:24:25.693Z,74.9
2018-06-18T05:25:06.046Z,75.67
2018-06-18T05:25:47.368Z,74.81
2018-06-18T05:26:27.744Z,75.2
2018-06-18T05:27:08.128Z,75.1
2018-06-18T05:27:48.520Z,75.2
2018-06-18T05:28:28.982Z,74.52
2018-06-18T05:29:09.357Z,74.81
2018-06-18T05:29:49.760Z,74.04
2018-06-18T05:30:30.179Z,73.94
2018-06-18T05:31:10.605Z,74.04
2018-06-18T05:31:51.018Z,75.1
2018-06-18T05:32:31.379Z,74.71
2018-06-18T05:40:56.727Z,74.43
2018-06-18T05:41:37.079Z,74.9
2018-06-18T05:42:17.455Z,73.98
2018-06-18T05:42:57.889Z,74.23
2018-06-18T05:43:38.260Z,73.94
2018-06-18T05:44:18.667Z,74.13
2018-06-18T05:44:59.389Z,74.13
2018-06-18T05:45:39.731Z,74.08
2018-06-18T05:46:20.449Z,73.75
2018-06-18T05:47:00.832Z,74.43
2018-06-18T05:47:41.327Z,73.98
2018-06-18T05:48:21.720Z,74.27
2018-06-18T05:49:02.163Z,73.6
2018-06-18T05:49:42.582Z,73.88
2018-06-18T05:50:23.029Z,73.98
2018-06-18T05:51:03.482Z,73.98
2018-06-18T05:51:43.900Z,74.17
2018-06-18T05:52:24.320Z,74.08
2018-06-18T05:53:04.778Z,73.79
2018-06-18T05:53:45.165Z,73.98
2018-06-18T05:54:25.597Z,74.08
2018-06-18T05:55:05.988Z,73.79
2018-06-18T05:55:46.411Z,73.5
2018-06-18T05:56:26.795Z,73.11
2018-06-18T05:57:07.270Z,73.21
2018-06-18T05:57:47.695Z,73.21
2018-06-18T05:58:28.144Z,72.83
2018-06-18T05:59:08.519Z,73.21
2018-06-18T05:59:48.929Z,72.77
2018-06-18T06:00:29.524Z,72.48
2018-06-18T06:01:09.955Z,72
2018-06-18T06:01:50.395Z,71.61
2018-06-18T06:02:30.765Z,71.61
2018-06-18T06:03:11.201Z,72
2018-06-18T06:03:51.628Z,72.32
2018-06-18T06:04:32.027Z,71.84
2018-06-18T06:05:12.440Z,71.46
2018-06-18T06:05:52.800Z,71.46
2018-06-18T06:06:33.220Z,70.72
2018-06-18T06:07:13.612Z,70.62
2018-06-18T06:07:54.053Z,69.57
2018-06-18T06:08:34.426Z,69.57
2018-06-18T06:09:14.888Z,68.84
2018-06-18T06:09:55.282Z,67.97
2018-06-18T06:10:35.652Z,67.61
2018-06-18T06:11:16.086Z,66.55
2018-06-18T06:11:56.464Z,66.07
2018-06-18T06:12:36.874Z,65.24
2018-06-18T06:13:17.336Z,64.86
2018-06-18T06:13:57.721Z,63.79
2018-06-18T06:14:38.151Z,64.08
2018-06-18T06:16:31.054Z,63.41
2018-06-18T06:17:11.647Z,63.44
2018-06-18T06:17:52.282Z,63.34
2018-06-18T06:18:32.763Z,63.06
2018-06-18T06:19:13.149Z,61.99
2018-06-18T06:19:53.581Z,62.66
2018-06-18T06:20:34.073Z,61.8
2018-06-18T06:21:15.884Z,62.38
2018-06-18T06:21:56.296Z,61.9
2018-06-18T06:22:37.462Z,62.38
2018-06-18T06:23:18.308Z,62.12
2018-06-18T06:23:59.360Z,61.74
2018-06-18T06:24:40.464Z,61.35
2018-06-18T06:25:21.263Z,61.54
2018-06-18T06:26:02.747Z,61.44
2018-06-18T06:26:43.636Z,61.06
2018-06-18T06:27:24.289Z,60.68
2018-06-18T06:28:05.177Z,60.31
2018-06-18T06:28:46.969Z,60.31
2018-06-18T06:29:27.926Z,59.93
2018-06-18T06:30:08.314Z,59.83
2018-06-18T06:30:48.734Z,59.74
2018-06-18T06:31:30.048Z,59.83
2018-06-18T06:32:10.528Z,59.83
2018-06-18T06:32:51.005Z,59.83
2018-06-18T06:33:31.389Z,59.64
2018-06-18T06:34:11.896Z,59.74
2018-06-18T06:34:52.242Z,59.25
2018-06-18T06:35:33.298Z,59.25
2018-06-18T06:36:13.080Z,59.16
2018-06-18T06:36:53.577Z,59.74
2018-06-18T06:37:34.049Z,59.55
2018-06-18T06:38:14.445Z,59.25
2018-06-18T06:38:54.852Z,59.35
2018-06-18T06:39:35.280Z,59.55
2018-06-18T06:40:15.697Z,60.03
2018-06-18T06:40:56.174Z,59.83
2018-06-18T06:41:36.610Z,60.03
2018-06-18T06:42:17.343Z,59.74
2018-06-18T06:42:57.879Z,59.55
2018-06-18T06:43:38.403Z,59.64
2018-06-18T06:44:19.253Z,59.64
2018-06-18T06:44:59.986Z,59.64
2018-06-18T06:45:41.200Z,59.16
2018-06-18T06:46:21.925Z,59.55
2018-06-18T06:47:02.936Z,59.35
2018-06-18T06:47:43.376Z,59.45
2018-06-18T06:48:24.160Z,59.64
2018-06-18T06:50:37.601Z,59.8
2018-06-18T06:51:18.936Z,60.19
2018-06-18T06:53:08.329Z,61.35
2018-06-18T06:53:48.438Z,61.06
2018-06-18T06:54:32.803Z,61.35
2018-06-18T06:55:11.475Z,61.25
2018-06-18T06:55:54.277Z,60.96
2018-06-18T06:56:37.855Z,61.06
2018-06-18T06:57:18.807Z,61.13
2018-06-18T06:58:00.369Z,61.8
2018-06-18T06:58:41.203Z,61.99
2018-06-18T06:59:23.549Z,62.48
2018-06-18T07:01:52.971Z,63.44
2018-06-18T07:02:38.529Z,63.24
2018-06-18T07:03:19.297Z,63.44
2018-06-18T07:04:00.656Z,63.34
2018-06-18T07:04:43.326Z,63.34
2018-06-18T07:05:25.150Z,62.76
2018-06-18T07:06:06.830Z,63.21
2018-06-18T07:06:48.089Z,63.54
2018-06-18T07:07:29.015Z,63.73
2018-06-18T07:08:10.671Z,63.79
2018-06-18T07:08:51.543Z,63.73
2018-06-18T07:09:48.496Z,64.18
2018-06-18T07:10:29.838Z,64.18
2018-06-18T07:11:09.658Z,64.56
2018-06-18T07:11:50.077Z,64.4
2018-06-18T07:12:30.927Z,64.47
2018-06-18T07:13:11.700Z,64.76
2018-06-18T07:13:58.764Z,64.59
2018-06-18T07:14:39.366Z,64.86
2018-06-18T07:15:19.831Z,65.05
2018-06-18T07:16:01.551Z,64.76
2018-06-18T07:16:42.441Z,65.24
2018-06-18T07:17:23.983Z,65.05
2018-06-18T07:18:05.002Z,64.37
2018-06-18T07:18:45.574Z,64.11
2018-06-18T07:19:26.095Z,63.92
2018-06-18T07:20:07.230Z,64.11
2018-06-18T07:20:47.888Z,63.82
2018-06-18T07:21:28.696Z,63.73
2018-06-18T07:22:09.279Z,63.82
2018-06-18T07:22:49.543Z,63.15
2018-06-18T07:23:30.475Z,63.54
2018-06-18T07:24:11.205Z,63.34
2018-06-18T07:24:53.194Z,63.24
2018-06-18T07:25:33.386Z,63.82
2018-06-18T07:26:14.874Z,63.82
2018-06-18T07:26:56.306Z,63.7
2018-06-18T07:27:37.995Z,64.11
2018-06-18T07:28:18.501Z,64.28
2018-06-18T07:29:00.861Z,64.18
2018-06-18T07:29:41.713Z,64.31
2018-06-18T07:30:23.191Z,63.73
2018-06-18T07:31:03.629Z,64.02
2018-06-18T07:31:43.907Z,63.44
2018-06-18T07:32:24.240Z,63.63
2018-06-18T07:33:05.098Z,63.73
2018-06-18T07:33:45.353Z,63.44
2018-06-18T07:34:25.792Z,63.44
2018-06-18T07:35:06.550Z,63.73
2018-06-18T07:35:47.308Z,63.82
2018-06-18T07:36:27.669Z,63.54
2018-06-18T07:37:08.187Z,63.24
2018-06-18T07:37:49.033Z,63.15
2018-06-18T07:38:29.745Z,62.86
2018-06-18T07:39:12.931Z,63.15
2018-06-18T07:39:53.733Z,63.15
2018-06-18T07:40:35.486Z,63.63
2018-06-18T07:41:17.246Z,63.82
2018-06-18T07:41:58.550Z,63.73
2018-06-18T07:42:39.814Z,64.21
2018-06-18T07:43:22.149Z,64.5
2018-06-18T07:44:05.774Z,63.73
2018-06-18T07:44:46.578Z,64.4
2018-06-18T07:45:28.967Z,64.5
2018-06-18T07:46:09.502Z,65.27
2018-06-18T07:46:50.446Z,64.5
2018-06-18T07:47:31.448Z,64.11
2018-06-18T07:48:12.336Z,64.11
2018-06-18T07:48:53.251Z,64.5
2018-06-18T07:49:35.372Z,64.31
2018-06-18T07:50:16.615Z,63.92
2018-06-18T07:50:59.631Z,63.82
2018-06-18T07:53:47.935Z,66.07
2018-06-18T07:54:28.628Z,66.01
2018-06-18T07:55:09.822Z,65.91
2018-06-18T07:55:50.676Z,65.81
2018-06-18T07:56:31.458Z,66.11
2018-06-18T07:57:11.885Z,65.91
2018-06-18T07:57:52.805Z,65.27
2018-06-18T07:58:34.498Z,64.4
2018-06-18T07:59:15.004Z,64.69
2018-06-18T07:59:55.625Z,64.31
2018-06-18T08:00:37.635Z,63.73
2018-06-18T08:01:19.328Z,63.73
2018-06-18T08:01:59.422Z,63.34
2018-06-18T08:02:40.993Z,63.44
2018-06-18T08:03:21.593Z,63.82
2018-06-18T08:04:02.197Z,63.34
2018-06-18T08:04:42.627Z,63.06
2018-06-18T08:05:23.760Z,63.18
2018-06-18T08:06:04.245Z,63.37
2018-06-18T08:06:44.822Z,62.89
2018-06-18T08:07:25.813Z,63.24
2018-06-18T08:08:08.724Z,63.24
2018-06-18T08:08:49.422Z,63.06
2018-06-18T08:09:31.002Z,63.44
2018-06-18T08:10:12.559Z,63.54
2018-06-18T08:10:53.750Z,63.44
2018-06-18T08:11:34.750Z,63.63
2018-06-18T08:12:15.205Z,62.86
2018-06-18T08:12:56.438Z,63.15
2018-06-18T08:13:36.643Z,63.63
2018-06-18T08:14:17.056Z,63.63
2018-06-18T08:14:58.094Z,63.73
2018-06-18T08:15:38.347Z,62.31
2018-06-18T08:16:18.969Z,62.79
2018-06-18T08:17:01.395Z,63.54
2018-06-18T08:17:42.438Z,62.79
2018-06-18T08:18:23.820Z,63.28
2018-06-18T08:19:04.944Z,62.66
2018-06-18T08:19:45.226Z,62.86
2018-06-18T08:20:31.553Z,63.44
2018-06-18T08:21:12.009Z,63.82
2018-06-18T08:21:53.000Z,64.02
2018-06-18T08:22:34.567Z,64.05
2018-06-18T08:23:16.475Z,63.57
2018-06-18T08:23:57.467Z,63.06
2018-06-18T08:24:38.489Z,62.7
2018-06-18T08:25:18.983Z,63.18
2018-06-18T08:26:01.641Z,62.31
2018-06-18T08:26:42.752Z,62.89
2018-06-18T08:27:24.675Z,62.66
2018-06-18T08:28:04.990Z,62.79
2018-06-18T08:28:45.866Z,63.09
2018-06-18T08:29:29.127Z,62.99
2018-06-18T08:30:09.101Z,62.6
2018-06-18T08:30:51.142Z,61.93
2018-06-18T08:31:31.715Z,62.02
2018-06-18T08:32:12.671Z,62.31
2018-06-18T08:32:54.013Z,62.25
2018-06-18T08:33:34.598Z,60.99
2018-06-18T08:34:16.360Z,61.09
2018-06-18T08:34:59.011Z,60.31
2018-06-18T08:35:39.832Z,60.99
2018-06-18T08:36:20.806Z,60.71
2018-06-18T08:37:01.783Z,60.8
2018-06-18T08:37:42.430Z,61.02
2018-06-18T08:38:22.777Z,60.64
2018-06-18T08:39:03.335Z,59.41
2018-06-18T08:39:44.280Z,60.09
2018-06-18T08:40:25.206Z,59.12
2018-06-18T08:41:05.537Z,57.6
2018-06-18T08:41:46.193Z,57.21
2018-06-18T08:42:29.786Z,57.6
2018-06-18T08:43:10.209Z,56.37
2018-06-18T08:43:51.340Z,55.89
2018-06-18T08:44:31.610Z,55.82
2018-06-18T08:45:12.162Z,55.34
2018-06-18T08:45:53.837Z,54.57
2018-06-18T08:46:34.545Z,55.17
2018-06-18T08:47:15.213Z,54.01
2018-06-18T08:47:58.330Z,53.53
2018-06-18T08:48:38.430Z,54.03
2018-06-18T08:49:20.125Z,53.75
2018-06-18T08:50:01.423Z,53.67
2018-06-18T08:50:43.604Z,53.49
2018-06-18T08:51:24.742Z,52.54
2018-06-18T08:52:05.252Z,51.21
2018-06-18T08:52:46.018Z,50.24
2018-06-18T08:53:26.689Z,50.04
2018-06-18T08:54:08.562Z,50.34
2018-06-18T08:54:49.037Z,49.46
2018-06-18T08:55:29.210Z,49.66
2018-06-18T08:56:10.200Z,50.04
2018-06-18T08:56:51.011Z,49.75
2018-06-18T08:57:32.354Z,49.95
2018-06-18T08:58:13.869Z,49.66
2018-06-18T08:58:54.239Z,49.19
2018-06-18T08:59:35.545Z,48.8
2018-06-18T09:00:19.709Z,49.1
2018-06-18T09:01:02.360Z,48.61
2018-06-18T09:03:17.760Z,47.64
2018-06-18T09:05:07.679Z,47.83
2018-06-18T09:06:03.417Z,47.93
2018-06-18T09:06:43.454Z,48.42
2018-06-18T09:07:26.347Z,47.45
2018-06-18T09:08:07.913Z,47.83
2018-06-18T09:08:48.906Z,48.22
2018-06-18T09:09:31.740Z,48.42
2018-06-18T09:10:12.037Z,47.45
2018-06-18T09:10:53.389Z,47.25
2018-06-18T09:11:34.099Z,47.83
2018-06-18T09:12:15.092Z,47.45
2018-06-18T09:12:55.715Z,47.55
2018-06-18T09:13:37.504Z,47.74
2018-06-18T09:14:17.585Z,47.74
2018-06-18T09:14:58.454Z,47.81
2018-06-18T09:15:39.656Z,48.39
2018-06-18T09:16:21.259Z,48.1
2018-06-18T09:17:01.998Z,48.39
2018-06-18T09:17:42.723Z,48.88
2018-06-18T09:18:24.085Z,48.88
2018-06-18T09:21:15.895Z,48.59
2018-06-18T09:21:57.762Z,48.78
2018-06-18T09:22:38.024Z,48.71
2018-06-18T09:23:19.411Z,47.45
2018-06-18T09:23:59.861Z,48.03
2018-06-18T09:24:41.622Z,48.61
2018-06-18T09:25:23.443Z,47.45
2018-06-18T09:26:03.854Z,47.64
2018-06-18T09:26:44.420Z,47.93
2018-06-18T09:27:25.623Z,48.03
2018-06-18T09:28:06.752Z,47.55
2018-06-18T09:28:47.810Z,48.03
2018-06-18T09:29:28.500Z,47.64
2018-06-18T09:30:09.139Z,47.16
2018-06-18T09:30:52.407Z,48.52
2018-06-18T09:31:32.565Z,48.61
2018-06-18T09:32:13.313Z,48.13
2018-06-18T09:32:53.551Z,48.22
2018-06-18T09:33:35.235Z,47.64
2018-06-18T09:34:16.626Z,47.55
2018-06-18T09:34:56.989Z,47.45
2018-06-18T09:35:38.053Z,47.25
2018-06-18T09:36:18.876Z,47.74
2018-06-18T09:36:59.551Z,47.55
2018-06-18T09:37:40.899Z,47.06
2018-06-18T09:38:21.891Z,47.03
2018-06-18T09:39:02.475Z,47.62
2018-06-18T09:39:43.690Z,48.49
2018-06-18T09:40:25.082Z,48
2018-06-18T09:41:06.360Z,48.59
2018-06-18T09:41:50.526Z,47.91
2018-06-18T09:42:32.207Z,48.88
2018-06-18T09:43:13.175Z,48.88
2018-06-18T09:43:54.512Z,48.69
2018-06-18T09:44:34.349Z,48.88
2018-06-18T09:45:15.048Z,48.2
2018-06-18T09:45:57.056Z,48.49
2018-06-18T09:46:38.768Z,49.07
2018-06-18T09:47:19.506Z,48.95
2018-06-18T09:48:00.971Z,48.95
2018-06-18T09:48:41.538Z,49.24
2018-06-18T09:49:22.295Z,49.24
2018-06-18T09:50:03.140Z,49.24
2018-06-18T09:50:43.373Z,49.05
2018-06-18T09:51:24.943Z,48.95
2018-06-18T09:52:04.720Z,48.95
2018-06-18T09:52:45.569Z,49.22
2018-06-18T09:53:26.345Z,49.99
2018-06-18T09:54:06.893Z,50.29
2018-06-18T09:54:47.425Z,50.19
2018-06-18T09:55:28.851Z,50.77
2018-06-18T09:56:10.725Z,51.16
2018-06-18T09:56:50.920Z,50.96
2018-06-18T09:57:31.798Z,50.48
2018-06-18T09:58:12.745Z,51.09
2018-06-18T10:00:29.540Z,49.73
2018-06-18T10:01:16.709Z,49.66
2018-06-18T10:01:58.179Z,48.97
2018-06-18T10:02:39.437Z,48.1
2018-06-18T10:03:19.879Z,48.03
2018-06-18T10:04:03.432Z,47.93
2018-06-18T10:04:44.187Z,47.64
2018-06-18T10:44:55.152Z,47.28
2018-06-18T10:45:36.316Z,47.66
2018-06-18T10:46:21.242Z,46.6
2018-06-18T10:47:02.192Z,46.98
2018-06-18T10:47:43.233Z,47.08
2018-06-18T10:48:23.704Z,46.89
2018-06-18T10:49:05.213Z,46.89
2018-06-18T10:49:46.526Z,46.6
2018-06-18T10:50:29.998Z,46.41
2018-06-18T10:51:15.128Z,46.98
2018-06-18T10:52:41.554Z,47.25
2018-06-18T10:53:24.234Z,47.74
2018-06-18T10:54:04.253Z,47.96
2018-06-18T10:54:44.967Z,47.96
2018-06-18T10:55:26.903Z,47.18
2018-06-18T10:56:08.701Z,46.21
2018-06-18T10:56:49.943Z,46.89
2018-06-18T10:57:31.256Z,47.08
2018-06-18T10:58:15.304Z,47.18
2018-06-18T10:58:57.896Z,46.31
2018-06-18T10:59:40.581Z,46.6
2018-06-18T11:00:23.284Z,47.18
2018-06-18T11:01:04.811Z,46.67
2018-06-18T11:01:48.115Z,47.16
2018-06-18T11:02:29.337Z,48.03
2018-06-18T11:03:10.135Z,48.25
2018-06-18T11:03:50.820Z,47.93
2018-06-18T11:04:32.952Z,48.03
2018-06-18T11:05:13.397Z,48.25
2018-06-18T11:05:54.965Z,47.64
2018-06-18T11:06:35.419Z,48.22
2018-06-18T11:07:16.876Z,48.8
2018-06-18T11:07:57.360Z,48.61
2018-06-18T11:08:38.691Z,49.1
2018-06-18T11:09:19.499Z,48.8
2018-06-18T11:09:59.819Z,48.9
2018-06-18T11:10:42.293Z,48.52
2018-06-18T11:11:22.193Z,48.9
2018-06-18T11:13:44.070Z,49.27
2018-06-18T11:14:25.420Z,49.27
2018-06-18T11:15:05.944Z,49.07
2018-06-18T11:15:46.384Z,49.27
2018-06-18T11:16:27.306Z,49.17
2018-06-18T11:17:08.568Z,49.46
2018-06-18T11:17:49.382Z,49.85
2018-06-18T11:18:29.889Z,49.75
2018-06-18T11:19:11.631Z,49.37
2018-06-18T11:19:52.626Z,49.56
2018-06-18T11:20:32.570Z,49.85
2018-06-18T11:23:05.740Z,50.62
2018-06-18T11:25:27.787Z,50.24
2018-06-18T11:26:11.234Z,50.24
2018-06-18T11:26:52.223Z,50.24
2018-06-18T11:27:32.723Z,50.62
2018-06-18T11:28:13.263Z,50.34
2018-06-18T11:28:53.742Z,50.41
2018-06-18T11:29:34.480Z,50.31
2018-06-18T11:30:15.453Z,50.79
2018-06-18T11:30:56.480Z,50.89
2018-06-18T11:31:37.865Z,50.79
2018-06-18T11:32:20.385Z,50.99
2018-06-18T11:33:00.904Z,50.99
2018-06-18T11:33:41.133Z,51.28
2018-06-18T11:34:22.844Z,51.28
2018-06-18T11:35:03.483Z,52.15
2018-06-18T11:35:44.311Z,51.57
2018-06-18T11:36:25.460Z,52.15
2018-06-18T11:37:06.826Z,51.57
2018-06-18T11:37:47.298Z,51.96
2018-06-18T11:38:27.844Z,51.67
2018-06-18T11:39:08.341Z,51.86
2018-06-18T11:39:48.804Z,52.06
2018-06-18T11:40:29.383Z,51.47
2018-06-18T11:41:11.793Z,52.15
2018-06-18T11:41:52.146Z,51.96
2018-06-18T11:42:32.699Z,51.76
2018-06-18T11:43:13.817Z,51.84
2018-06-18T11:43:54.717Z,51.93
2018-06-18T11:44:37.597Z,51.74
2018-06-18T11:45:19.242Z,51.06
2018-06-18T11:46:00.548Z,52.12
2018-06-18T11:46:41.778Z,51.74
2018-06-18T11:47:22.287Z,52.12
2018-06-18T11:48:03.157Z,51.84
2018-06-18T11:48:51.953Z,51.84
2018-06-18T11:49:33.170Z,51.84
2018-06-18T11:50:13.509Z,52.22
2018-06-18T11:50:54.160Z,53
2018-06-18T11:51:34.654Z,52.8
2018-06-18T11:52:15.377Z,52.54
2018-06-18T11:52:55.949Z,53.02
2018-06-18T11:53:36.518Z,53.12
2018-06-18T11:54:17.047Z,52.61
2018-06-18T11:54:58.430Z,53.39
2018-06-18T11:55:38.941Z,53.8
2018-06-18T11:56:19.632Z,53.99
2018-06-18T11:57:02.321Z,53.12
2018-06-18T11:57:41.914Z,51.76
2018-06-18T11:58:22.453Z,51.96
2018-06-18T11:59:04.349Z,51.86
2018-06-18T11:59:44.691Z,51.76
2018-06-18T12:01:44.108Z,51.86
2018-06-18T12:02:25.895Z,52.15
2018-06-18T12:03:07.130Z,52.54
2018-06-18T12:03:47.906Z,52.44
2018-06-18T12:04:28.872Z,52.73
2018-06-18T12:05:09.855Z,52.73
2018-06-18T12:05:51.564Z,52.83
2018-06-18T12:06:32.628Z,52.73
2018-06-18T12:07:13.665Z,52.64
2018-06-18T12:07:54.297Z,52.44
2018-06-18T12:08:35.251Z,52.34
2018-06-18T12:09:16.320Z,52.32
2018-06-18T12:09:57.306Z,52.9
2018-06-18T12:10:37.770Z,53
2018-06-18T12:11:18.495Z,52.9
2018-06-18T12:11:59.038Z,53.49
2018-06-18T12:12:40.549Z,53.67
2018-06-18T12:13:21.672Z,53.49
2018-06-18T12:14:03.939Z,54.06
2018-06-18T12:14:44.782Z,53.77
2018-06-18T12:15:25.940Z,53.55
2018-06-18T12:16:07.857Z,53.67
2018-06-18T12:16:49.180Z,53.49
2018-06-18T12:17:30.964Z,54.06
2018-06-18T12:18:11.139Z,54.71
2018-06-18T12:18:52.381Z,54.35
2018-06-18T12:19:33.785Z,54.16
2018-06-18T12:20:14.202Z,54.16
2018-06-18T12:20:56.714Z,54.52
2018-06-18T12:21:37.777Z,55.22
2018-06-18T12:22:18.168Z,54.33
2018-06-18T12:22:59.182Z,54.71
2018-06-18T12:23:41.169Z,54.26
2018-06-18T12:24:22.016Z,54.23
2018-06-18T12:25:02.701Z,54.81
2018-06-18T12:25:44.885Z,55.1
2018-06-18T12:26:25.930Z,54.64
2018-06-18T12:27:07.189Z,54.35
2018-06-18T12:27:48.398Z,54.64
2018-06-18T12:28:30.813Z,53.97
2018-06-18T12:29:11.607Z,53.97
2018-06-18T12:29:52.220Z,53.58
2018-06-18T12:30:32.762Z,53.49
2018-06-18T12:31:13.690Z,53.8
2018-06-18T12:31:54.567Z,53.02
2018-06-18T12:32:36.246Z,52.93
2018-06-18T12:33:18.355Z,52.83
2018-06-18T12:34:00.392Z,52.73
2018-06-18T12:34:40.291Z,53.02
2018-06-18T12:35:21.106Z,52.73
2018-06-18T12:36:03.034Z,52.18
2018-06-18T12:36:42.597Z,52.08
2018-06-18T12:37:24.173Z,52.56
2018-06-18T12:38:04.833Z,52.08
2018-06-18T12:38:47.340Z,51.59
2018-06-18T12:39:28.256Z,51.31
2018-06-18T12:40:08.944Z,51.01
2018-06-18T12:40:49.702Z,51.59
2018-06-18T12:41:31.746Z,51.43
2018-06-18T12:42:14.875Z,51.23
2018-06-18T12:44:03.319Z,51.06
2018-06-18T12:44:43.833Z,49.71
2018-06-18T12:45:25.899Z,49.9
2018-06-18T12:46:06.980Z,50.68